Time;durP1;ratioP1;P1;durP2;ratioP2;P2;SDS_P1;SDS_P2;PMS_P1;PMS_P2;Temp;Humidity;BMP_temperature;BMP_pressure;BME280_temperature;BME280_humidity;BME280_pressure;Samples;Min_cycle;Max_cycle;Signal;HPM_P1;HPM_P2
2023/05/19 00:01:08;;;;;;;2.87;1.30;;;;;;;17.15;73.99;100097.19;5069107;28;20036;-39
2023/05/19 00:03:39;;;;;;;5.72;1.40;;;;;;;16.92;73.93;100065.13;5087999;28;20043;-40
2023/05/19 00:06:09;;;;;;;2.85;1.10;;;;;;;17.04;73.54;100092.53;5086129;28;20036;-39
2023/05/19 00:08:37;;;;;;;3.17;1.05;;;;;;;17.00;73.47;100096.25;5069336;28;20051;-41
2023/05/19 00:11:03;;;;;;;3.08;1.50;;;;;;;16.98;72.74;100092.00;5087269;28;20036;-40
2023/05/19 00:13:29;;;;;;;2.63;1.00;;;;;;;16.98;72.62;100089.38;5032306;28;20056;-40
2023/05/19 00:15:56;;;;;;;2.60;1.00;;;;;;;16.98;72.14;100095.47;5049762;28;20432;-41
2023/05/19 00:18:22;;;;;;;3.45;0.93;;;;;;;16.96;71.85;100097.31;5088162;28;20044;-40
2023/05/19 00:20:48;;;;;;;4.85;1.35;;;;;;;16.81;71.58;100074.53;5088120;28;20051;-40
2023/05/19 00:23:14;;;;;;;3.20;0.90;;;;;;;16.92;71.08;100101.91;5086393;28;20036;-39
2023/05/19 00:25:40;;;;;;;2.10;0.88;;;;;;;16.91;70.79;100101.97;5069974;28;20412;-40
2023/05/19 00:28:06;;;;;;;2.42;0.90;;;;;;;16.80;70.53;100085.97;5086429;28;20085;-40
2023/05/19 00:30:32;;;;;;;1.67;1.10;;;;;;;16.91;70.34;100113.34;5068747;28;20039;-39
2023/05/19 00:32:58;;;;;;;1.33;1.00;;;;;;;16.79;70.28;100103.50;5052800;28;20465;-42
2023/05/19 00:35:23;;;;;;;1.48;1.10;;;;;;;16.89;70.23;100120.47;5086858;28;20044;-40
2023/05/19 00:37:49;;;;;;;2.03;1.20;;;;;;;16.86;70.17;100115.38;5086874;28;20129;-41
2023/05/19 00:40:16;;;;;;;1.38;0.90;;;;;;;16.84;70.36;100134.78;5048394;28;20048;-47
2023/05/19 00:42:42;;;;;;;2.65;1.00;;;;;;;16.80;70.79;100117.50;5053164;28;20059;-40
2023/05/19 00:45:08;;;;;;;2.92;1.10;;;;;;;16.76;71.17;100131.69;5069849;28;20048;-40
2023/05/19 00:47:34;;;;;;;3.35;1.20;;;;;;;16.73;71.39;100129.25;5070052;28;20075;-41
2023/05/19 00:50:00;;;;;;;7.53;1.63;;;;;;;16.69;71.48;100125.09;5069792;28;20126;-41
2023/05/19 00:52:26;;;;;;;7.90;1.48;;;;;;;16.62;72.08;100135.03;5068233;28;20587;-39
2023/05/19 00:54:52;;;;;;;4.70;1.10;;;;;;;16.56;72.22;100137.94;5068148;28;20162;-40
2023/05/19 00:57:19;;;;;;;3.08;1.15;;;;;;;16.50;72.54;100136.50;5087651;28;20161;-40
2023/05/19 00:59:49;;;;;;;1.52;1.08;;;;;;;16.42;72.70;100130.78;5069405;28;20499;-39
2023/05/19 01:02:15;;;;;;;2.55;1.10;;;;;;;16.36;72.71;100130.25;5068838;28;20050;-39
2023/05/19 01:04:42;;;;;;;3.15;1.00;;;;;;;16.33;73.38;100135.66;5067545;28;20044;-40
2023/05/19 01:07:09;;;;;;;1.15;0.90;;;;;;;16.16;73.49;100126.03;5069114;28;20134;-40
2023/05/19 01:09:36;;;;;;;1.90;0.80;;;;;;;16.26;73.43;100150.00;5067929;28;20097;-39
2023/05/19 01:12:02;;;;;;;1.15;1.00;;;;;;;16.21;73.44;100145.00;5067448;28;20063;-40
2023/05/19 01:14:28;;;;;;;1.77;0.77;;;;;;;16.18;73.64;100142.50;5056753;28;20475;-39
2023/05/19 01:17:08;;;;;;;1.02;0.80;;;;;;;16.14;73.90;100142.75;5073632;28;20051;-41
2023/05/19 01:19:45;;;;;;;4.20;0.80;;;;;;;16.09;74.25;100138.59;5091221;28;20051;-39
2023/05/19 01:22:26;;;;;;;4.85;1.08;;;;;;;16.05;74.60;100151.94;5088706;28;20040;-40
2023/05/19 01:25:18;;;;;;;1.77;1.17;;;;;;;15.99;74.21;100157.47;5056620;28;20040;-40
2023/05/19 01:28:06;;;;;;;3.10;1.40;;;;;;;15.90;74.02;100163.19;5069455;28;20067;-40
2023/05/19 01:30:42;;;;;;;1.80;1.38;;;;;;;15.81;73.34;100168.84;5056370;28;20055;-39
2023/05/19 01:33:12;;;;;;;3.90;1.75;;;;;;;15.75;72.74;100166.53;5081984;28;20043;-39
2023/05/19 01:35:39;;;;;;;2.53;1.73;;;;;;;15.58;72.68;100151.59;5055927;28;20048;-39
2023/05/19 01:38:10;;;;;;;3.92;2.05;;;;;;;15.62;72.60;100174.97;5022319;28;20047;-41
2023/05/19 01:40:38;;;;;;;4.72;1.92;;;;;;;15.47;72.34;100177.44;5055665;28;20047;-39
2023/05/19 01:43:07;;;;;;;3.55;2.42;;;;;;;15.45;72.36;100187.97;5071927;28;20040;-41
2023/05/19 01:45:33;;;;;;;3.95;2.17;;;;;;;15.39;72.32;100185.63;5038620;28;20461;-40
2023/05/19 01:48:01;;;;;;;4.47;2.55;;;;;;;15.22;71.58;100182.94;5089148;28;20040;-40
2023/05/19 01:50:28;;;;;;;6.22;2.58;;;;;;;15.25;70.98;100193.28;5055007;28;20039;-39
2023/05/19 01:52:54;;;;;;;5.75;2.55;;;;;;;15.18;70.09;100197.94;5087785;28;20105;-42
2023/05/19 01:55:22;;;;;;;3.25;2.80;;;;;;;14.89;69.34;100155.66;5089010;28;20134;-39
2023/05/19 01:58:12;;;;;;;3.72;2.30;;;;;;;15.06;68.81;100195.03;5055648;28;20016;-40
2023/05/19 02:00:50;;;;;;;5.85;2.47;;;;;;;15.00;68.07;100195.28;5053211;28;20044;-40
2023/05/19 02:03:39;;;;;;;2.92;2.42;;;;;;;14.93;67.49;100193.84;5069512;28;20410;-39
2023/05/19 02:06:17;;;;;;;3.77;2.73;;;;;;;14.88;67.20;100191.44;5055411;28;20462;-40
2023/05/19 02:09:03;;;;;;;5.78;2.63;;;;;;;14.83;66.81;100196.03;5068155;28;20040;-39
2023/05/19 02:11:30;;;;;;;3.92;2.20;;;;;;;14.74;66.55;100199.91;5043464;28;20040;-41
2023/05/19 02:14:02;;;;;;;5.97;2.40;;;;;;;14.70;66.45;100192.25;5054481;28;20044;-39
2023/05/19 02:16:28;;;;;;;6.00;2.47;;;;;;;14.66;66.23;100196.75;5071370;28;20097;-39
2023/05/19 02:18:55;;;;;;;3.28;2.47;;;;;;;14.63;65.96;100199.50;5072075;28;20040;-37
2023/05/19 02:21:21;;;;;;;6.15;2.40;;;;;;;14.61;65.39;100197.88;5071969;28;20166;-40
2023/05/19 02:23:47;;;;;;;3.42;2.67;;;;;;;14.58;65.23;100195.38;5071727;28;20122;-40
2023/05/19 02:26:13;;;;;;;4.72;2.60;;;;;;;14.53;65.13;100192.97;5070605;28;20126;-41
2023/05/19 02:28:39;;;;;;;5.05;2.63;;;;;;;14.53;65.06;100195.59;5090105;28;20177;-39
2023/05/19 02:31:07;;;;;;;2.92;2.35;;;;;;;14.50;64.95;100203.56;5070794;28;20044;-39
2023/05/19 02:33:33;;;;;;;4.43;2.45;;;;;;;14.32;64.63;100179.00;5090087;28;20093;-40
2023/05/19 02:36:01;;;;;;;5.47;2.50;;;;;;;14.43;65.00;100206.50;5089797;28;20043;-39
2023/05/19 02:38:28;;;;;;;4.25;2.40;;;;;;;14.38;64.86;100199.72;5052321;28;20046;-41
2023/05/19 02:40:53;;;;;;;5.25;2.70;;;;;;;14.37;65.10;100210.22;5051308;28;20837;-39
2023/05/19 02:43:19;;;;;;;6.78;2.58;;;;;;;14.31;65.08;100200.84;5070235;28;20547;-40
2023/05/19 02:45:45;;;;;;;4.43;2.55;;;;;;;14.33;65.02;100213.84;5070418;28;20108;-41
2023/05/19 02:48:11;;;;;;;6.10;3.03;;;;;;;14.31;65.47;100210.44;5071844;28;20051;-39
2023/05/19 02:50:37;;;;;;;7.70;3.28;;;;;;;14.32;65.55;100210.38;5089764;28;20043;-40
2023/05/19 02:53:03;;;;;;;5.82;2.75;;;;;;;14.34;65.98;100216.38;5074138;28;20439;-39
2023/05/19 02:55:29;;;;;;;4.90;2.67;;;;;;;14.37;66.15;100218.06;5071686;28;20044;-40
2023/05/19 02:57:55;;;;;;;4.50;3.03;;;;;;;14.37;66.33;100213.69;5075150;28;20115;-39
2023/05/19 03:00:21;;;;;;;4.30;2.80;;;;;;;14.37;66.55;100221.53;5088024;28;20100;-41
2023/05/19 03:02:48;;;;;;;5.72;3.10;;;;;;;14.38;66.79;100219.78;5069710;28;20039;-40
2023/05/19 03:05:14;;;;;;;5.85;2.97;;;;;;;14.37;67.00;100220.69;5071755;28;20128;-39
2023/05/19 03:07:40;;;;;;;4.78;2.80;;;;;;;14.22;67.08;100200.38;5069588;28;20048;-39
2023/05/19 03:10:07;;;;;;;4.80;2.90;;;;;;;14.31;67.68;100228.75;5069006;28;20040;-39
2023/05/19 03:12:33;;;;;;;4.88;2.90;;;;;;;14.27;67.91;100222.81;5071251;28;20046;-41
2023/05/19 03:14:59;;;;;;;5.40;3.20;;;;;;;14.23;68.10;100236.94;5071267;28;20108;-40
2023/05/19 03:17:27;;;;;;;5.85;3.60;;;;;;;14.19;68.82;100232.72;5086885;28;20078;-42
2023/05/19 03:19:53;;;;;;;11.23;5.88;;;;;;;14.20;69.31;100242.25;5088459;28;20044;-39
2023/05/19 03:22:20;;;;;;;6.38;3.42;;;;;;;14.22;69.33;100229.13;5070597;28;20050;-39
2023/05/19 03:24:48;;;;;;;4.68;3.20;;;;;;;14.24;69.25;100243.84;5071022;28;20454;-42
2023/05/19 03:27:15;;;;;;;6.63;3.05;;;;;;;14.25;69.37;100242.06;5070516;28;20043;-40
2023/05/19 03:29:41;;;;;;;6.45;3.45;;;;;;;14.26;69.39;100235.94;5069771;28;20085;-39
2023/05/19 03:32:07;;;;;;;5.95;3.42;;;;;;;14.22;69.48;100240.44;5071140;28;20060;-39
2023/05/19 03:34:34;;;;;;;5.90;3.40;;;;;;;14.26;69.55;100247.25;5066976;28;20079;-38
2023/05/19 03:37:00;;;;;;;5.43;3.22;;;;;;;14.24;69.76;100238.59;5068110;28;20118;-40
2023/05/19 03:39:27;;;;;;;5.10;2.85;;;;;;;14.25;70.07;100248.16;5070103;28;20036;-39
2023/05/19 03:41:52;;;;;;;5.32;3.55;;;;;;;14.27;70.40;100255.94;5054014;28;20047;-41
2023/05/19 03:44:18;;;;;;;5.38;3.70;;;;;;;14.02;70.63;100218.63;5070153;28;20047;-40
2023/05/19 03:46:44;;;;;;;5.50;3.35;;;;;;;14.25;71.08;100256.00;5070244;28;20113;-39
2023/05/19 03:49:29;;;;;;;4.88;3.40;;;;;;;14.11;71.01;100236.56;5084360;28;20061;-39
2023/05/19 03:52:14;;;;;;;6.53;3.35;;;;;;;14.21;71.14;100261.44;5088503;28;20113;-40
2023/05/19 03:54:53;;;;;;;5.50;3.60;;;;;;;14.21;71.55;100264.88;5070553;28;20096;-41
2023/05/19 03:57:19;;;;;;;4.75;3.58;;;;;;;14.17;71.49;100258.09;5087952;28;20118;-39
2023/05/19 03:59:46;;;;;;;7.47;4.43;;;;;;;14.22;71.71;100270.97;5052732;28;20036;-39
2023/05/19 04:02:12;;;;;;;6.25;3.75;;;;;;;14.20;71.78;100264.94;5066455;28;20044;-40
2023/05/19 04:04:38;;;;;;;5.22;3.65;;;;;;;14.14;71.73;100263.41;5068776;28;20039;-39
2023/05/19 04:07:04;;;;;;;5.72;3.40;;;;;;;14.03;71.93;100239.47;5069421;28;20044;-41
2023/05/19 04:09:33;;;;;;;5.53;3.90;;;;;;;14.25;72.16;100263.84;5064391;28;20047;-40
2023/05/19 04:12:04;;;;;;;4.75;3.58;;;;;;;14.26;71.92;100257.72;5033754;28;20523;-40
2023/05/19 04:14:29;;;;;;;6.55;4.00;;;;;;;14.31;71.91;100261.00;5063108;28;20040;-40
2023/05/19 04:16:56;;;;;;;7.43;4.32;;;;;;;14.31;71.90;100268.00;5017181;28;20050;-43
2023/05/19 04:19:22;;;;;;;6.30;4.38;;;;;;;14.31;72.15;100273.22;5052509;28;20032;-42
2023/05/19 04:21:47;;;;;;;6.18;3.95;;;;;;;14.35;72.20;100269.56;5052183;28;20204;-41
2023/05/19 04:24:13;;;;;;;7.55;4.07;;;;;;;14.38;72.12;100267.72;5053846;28;20042;-39
2023/05/19 04:26:44;;;;;;;6.03;4.43;;;;;;;14.38;72.54;100278.19;5068555;28;20044;-40
2023/05/19 04:29:12;;;;;;;7.45;4.47;;;;;;;14.38;72.95;100275.56;5069410;28;20430;-40
2023/05/19 04:31:39;;;;;;;6.25;4.20;;;;;;;14.37;72.70;100281.72;5070165;28;20039;-42
2023/05/19 04:34:06;;;;;;;6.13;3.97;;;;;;;14.35;72.57;100274.78;5070504;28;20052;-41
2023/05/19 04:36:33;;;;;;;8.85;4.88;;;;;;;14.23;72.62;100264.84;5052962;28;20123;-40
2023/05/19 04:39:02;;;;;;;9.77;4.40;;;;;;;14.35;72.83;100277.41;5065223;28;20032;-41
2023/05/19 04:41:28;;;;;;;8.40;4.40;;;;;;;14.31;72.67;100284.53;5086225;28;20040;-42
2023/05/19 04:43:56;;;;;;;7.03;4.10;;;;;;;14.31;72.82;100284.53;5051593;28;20622;-39
2023/05/19 04:46:23;;;;;;;7.93;4.97;;;;;;;14.29;73.02;100290.72;5053283;28;20044;-40
2023/05/19 04:48:50;;;;;;;8.13;4.53;;;;;;;14.23;73.39;100280.53;5054032;28;20787;-39
2023/05/19 04:51:16;;;;;;;8.35;5.00;;;;;;;14.23;73.65;100285.75;5092325;28;20036;-41
2023/05/19 04:53:43;;;;;;;10.02;5.20;;;;;;;14.22;73.94;100284.91;5072517;28;20518;-40
2023/05/19 04:56:14;;;;;;;8.32;4.43;;;;;;;14.11;74.04;100254.84;5074030;28;20036;-40
2023/05/19 04:58:43;;;;;;;7.35;4.70;;;;;;;14.31;74.04;100271.47;5072606;28;20051;-40
2023/05/19 05:01:12;;;;;;;8.02;5.13;;;;;;;14.35;73.86;100286.09;5073838;28;20031;-40
2023/05/19 05:03:38;;;;;;;8.07;5.15;;;;;;;14.37;73.98;100280.84;5071621;28;20063;-40
2023/05/19 05:06:05;;;;;;;10.23;5.20;;;;;;;14.39;73.84;100273.81;5073880;28;20082;-42
2023/05/19 05:08:31;;;;;;;6.78;4.50;;;;;;;14.22;73.97;100255.28;5089767;28;20040;-39
2023/05/19 05:10:58;;;;;;;10.25;5.43;;;;;;;14.39;74.17;100286.88;5053899;28;20064;-40
2023/05/19 05:13:25;;;;;;;8.43;5.68;;;;;;;14.38;74.09;100283.41;5072933;28;20142;-39
2023/05/19 05:15:52;;;;;;;10.07;5.78;;;;;;;14.36;74.03;100284.34;5053443;28;20052;-40
2023/05/19 05:18:19;;;;;;;8.07;5.32;;;;;;;14.35;73.80;100291.34;5069542;28;20511;-41
2023/05/19 05:20:45;;;;;;;9.23;5.85;;;;;;;14.36;73.97;100284.34;5055912;28;20464;-41
2023/05/19 05:23:13;;;;;;;9.85;5.30;;;;;;;14.36;74.07;100289.59;5090394;28;20039;-40
2023/05/19 05:25:42;;;;;;;8.57;5.53;;;;;;;14.38;73.60;100291.28;5072624;28;20488;-40
2023/05/19 05:28:08;;;;;;;10.00;6.25;;;;;;;14.42;73.65;100294.59;5073461;28;20040;-39
2023/05/19 05:30:36;;;;;;;7.43;5.60;;;;;;;14.42;73.65;100297.22;5052146;28;20047;-41
2023/05/19 05:33:03;;;;;;;10.00;5.65;;;;;;;14.47;73.31;100297.88;5053274;28;20448;-41
2023/05/19 05:35:33;;;;;;;8.05;5.32;;;;;;;14.52;73.42;100303.78;5072021;28;20043;-41
2023/05/19 05:38:00;;;;;;;8.07;5.80;;;;;;;14.57;73.61;100309.69;5080901;28;20035;-42
2023/05/19 05:40:26;;;;;;;9.02;6.22;;;;;;;14.63;73.34;100303.34;5071952;28;20043;-41
2023/05/19 05:42:54;;;;;;;9.57;6.60;;;;;;;14.65;72.81;100301.53;5070983;28;20507;-41
2023/05/19 05:45:22;;;;;;;;;;;;;;;14.70;72.70;100305.66;5079731;28;20106;-40
2023/05/19 05:47:49;;;;;;;12.85;6.45;;;;;;;14.77;72.48;100316.72;5076742;28;19972;-41
2023/05/19 05:50:15;;;;;;;8.32;6.13;;;;;;;14.93;72.35;100309.06;5075830;28;20147;-43
2023/05/19 05:52:45;;;;;;;9.88;6.72;;;;;;;15.02;71.92;100312.13;5071491;28;20435;-39
2023/05/19 05:55:12;;;;;;;12.23;6.68;;;;;;;15.14;71.30;100310.78;5052455;28;20135;-39
2023/05/19 05:57:40;;;;;;;12.23;7.70;;;;;;;15.27;71.08;100315.44;5055235;28;20176;-39
2023/05/19 06:00:14;;;;;;;11.23;8.38;;;;;;;15.38;70.75;100309.72;5067848;28;20422;-40
2023/05/19 06:02:52;;;;;;;12.27;7.78;;;;;;;15.45;70.45;100313.75;5074006;28;20050;-41
2023/05/19 06:05:19;;;;;;;12.40;7.45;;;;;;;15.51;69.86;100313.53;5070234;28;20040;-41
2023/05/19 06:07:46;;;;;;;13.00;7.57;;;;;;;15.41;69.58;100286.00;5071112;28;20056;-40
2023/05/19 06:10:18;;;;;;;17.95;7.65;;;;;;;15.35;69.08;100270.53;5068322;28;20052;-41
2023/05/19 06:12:45;;;;;;;20.52;7.65;;;;;;;15.60;68.88;100302.63;5076780;28;20036;-40
2023/05/19 06:15:11;;;;;;;15.00;7.22;;;;;;;15.73;68.80;100316.03;5090147;28;20064;-41
2023/05/19 06:17:56;;;;;;;13.43;7.40;;;;;;;15.84;68.32;100316.41;5093145;28;20461;-40
2023/05/19 06:20:21;;;;;;;11.95;7.10;;;;;;;15.92;68.44;100316.88;5071491;28;20126;-40
2023/05/19 06:22:47;;;;;;;12.23;7.28;;;;;;;16.00;67.62;100320.03;5098404;28;20384;-41
2023/05/19 06:25:15;;;;;;;11.18;7.40;;;;;;;16.13;67.25;100317.66;5044737;28;20142;-40
2023/05/19 06:27:42;;;;;;;12.45;7.78;;;;;;;16.28;66.49;100311.69;5093860;28;20036;-41
2023/05/19 06:30:08;;;;;;;10.27;7.15;;;;;;;16.42;65.37;100306.66;5069980;28;20522;-42
2023/05/19 06:32:42;;;;;;;13.73;7.88;;;;;;;16.47;65.19;100315.16;5085196;28;20119;-40
2023/05/19 06:35:08;;;;;;;13.13;7.70;;;;;;;16.58;64.67;100312.00;5078062;28;20548;-42
2023/05/19 06:37:34;;;;;;;13.38;7.65;;;;;;;16.59;64.30;100299.75;5060552;28;20045;-41
2023/05/19 06:40:02;;;;;;;11.13;7.50;;;;;;;16.64;63.78;100305.63;5077069;28;20531;-40
2023/05/19 06:42:29;;;;;;;12.00;7.65;;;;;;;16.57;63.53;100305.03;5061705;28;20035;-40
2023/05/19 06:45:11;;;;;;;12.27;7.07;;;;;;;16.59;63.35;100324.22;5055516;28;20052;-41
2023/05/19 06:47:43;;;;;;;11.23;7.05;;;;;;;16.41;63.38;100306.72;5081537;28;20054;-39
2023/05/19 06:50:09;;;;;;;20.65;8.25;;;;;;;16.62;63.13;100321.44;5079699;28;20073;-41
2023/05/19 06:52:38;;;;;;;14.05;8.02;;;;;;;16.42;62.81;100282.16;5061103;28;20052;-40
2023/05/19 06:55:05;;;;;;;12.23;7.93;;;;;;;16.67;63.15;100324.69;5043178;28;20043;-41
2023/05/19 06:57:32;;;;;;;14.77;8.27;;;;;;;16.88;62.23;100325.41;5070145;28;20041;-41
2023/05/19 06:59:59;;;;;;;15.55;7.68;;;;;;;17.12;61.29;100326.78;5052595;28;20044;-37
2023/05/19 07:02:26;;;;;;;14.80;7.93;;;;;;;17.48;60.49;100336.38;5098225;28;20153;-37
2023/05/19 07:04:52;;;;;;;14.68;7.32;;;;;;;17.74;59.50;100335.88;5066963;28;20131;-39
2023/05/19 07:07:21;;;;;;;12.85;8.73;;;;;;;17.97;58.38;100332.84;5063226;28;20677;-38
2023/05/19 07:09:47;;;;;;;14.68;7.80;;;;;;;18.09;57.52;100340.06;5060273;28;20077;-41
2023/05/19 07:12:13;;;;;;;9.55;7.18;;;;;;;17.99;56.88;100323.09;5082697;28;20085;-38
2023/05/19 07:14:39;;;;;;;15.10;8.00;;;;;;;17.86;56.74;100319.41;5077018;28;20063;-38
2023/05/19 07:17:06;;;;;;;11.98;7.82;;;;;;;17.94;56.89;100340.06;5058507;28;20126;-40
2023/05/19 07:19:34;;;;;;;9.82;6.80;;;;;;;17.97;56.55;100343.34;5080020;28;20050;-40
2023/05/19 07:22:00;;;;;;;10.30;7.03;;;;;;;17.99;56.39;100341.50;5057673;28;20541;-38
2023/05/19 07:24:26;;;;;;;13.23;7.13;;;;;;;18.10;55.89;100322.50;5082405;28;20130;-40
2023/05/19 07:26:52;;;;;;;12.40;6.53;;;;;;;18.65;54.78;100337.84;5076544;28;20071;-39
2023/05/19 07:29:19;;;;;;;11.80;6.40;;;;;;;19.03;53.58;100339.97;5075635;28;20090;-40
2023/05/19 07:31:45;;;;;;;8.73;5.50;;;;;;;19.34;52.39;100343.44;5045348;28;20047;-38
2023/05/19 07:34:11;;;;;;;9.38;5.50;;;;;;;19.64;51.17;100343.38;5080753;28;20089;-39
2023/05/19 07:36:37;;;;;;;6.40;4.68;;;;;;;20.00;48.89;100327.91;5093365;28;20044;-39
2023/05/19 07:39:03;;;;;;;7.50;5.00;;;;;;;21.02;46.30;100345.06;5100449;28;20142;-38
2023/05/19 07:41:29;;;;;;;7.15;4.50;;;;;;;21.75;44.77;100354.16;5098770;28;20588;-38
2023/05/19 07:43:55;;;;;;;11.38;6.50;;;;;;;23.05;42.17;100348.25;5068054;28;20557;-38
2023/05/19 07:46:21;;;;;;;9.23;3.83;;;;;;;24.06;39.88;100350.09;5053538;28;20160;-38
2023/05/19 07:48:47;;;;;;;8.75;3.38;;;;;;;25.27;37.57;100357.84;5070314;28;20521;-37
2023/05/19 07:51:13;;;;;;;6.15;2.97;;;;;;;25.89;35.57;100351.63;5093659;28;20063;-38
2023/05/19 07:53:39;;;;;;;4.93;3.42;;;;;;;26.37;34.68;100347.34;5091215;28;20052;-38
2023/05/19 07:56:05;;;;;;;6.00;3.70;;;;;;;27.20;32.76;100351.31;5098241;28;20184;-39
2023/05/19 07:58:32;;;;;;;12.88;3.60;;;;;;;27.87;31.53;100351.16;5077515;28;20418;-38
2023/05/19 08:00:58;;;;;;;8.90;3.55;;;;;;;27.94;30.48;100349.59;5096585;28;20087;-38
2023/05/19 08:03:25;;;;;;;10.85;3.50;;;;;;;27.97;29.95;100353.78;5070368;28;20043;-38
2023/05/19 08:05:51;;;;;;;6.65;3.15;;;;;;;27.82;30.00;100329.38;5072587;28;20450;-38
2023/05/19 08:08:18;;;;;;;5.85;3.30;;;;;;;27.83;29.55;100340.91;5072305;28;20054;-38
2023/05/19 08:10:45;;;;;;;6.25;3.38;;;;;;;27.85;28.90;100338.91;5069034;28;20110;-39
2023/05/19 08:13:11;;;;;;;7.50;4.20;;;;;;;28.02;28.24;100347.00;5061813;28;20043;-38
2023/05/19 08:15:36;;;;;;;4.88;2.50;;;;;;;27.94;28.09;100349.59;5075250;28;20036;-38
2023/05/19 08:18:04;;;;;;;5.07;2.80;;;;;;;28.03;27.33;100354.03;5052217;28;20086;-40
2023/05/19 08:20:30;;;;;;;6.18;2.83;;;;;;;28.73;26.08;100341.00;5072160;28;20108;-40
2023/05/19 08:22:56;;;;;;;6.90;3.10;;;;;;;29.18;25.19;100324.81;5071599;28;20051;-39
2023/05/19 08:25:22;;;;;;;10.48;3.30;;;;;;;30.20;24.20;100358.75;5057878;28;20048;-41
2023/05/19 08:27:48;;;;;;;14.73;3.72;;;;;;;30.75;23.58;100346.69;5080261;28;20651;-42
2023/05/19 08:30:14;;;;;;;6.90;2.40;;;;;;;31.61;22.48;100345.19;5088165;28;20036;-40
2023/05/19 08:32:40;;;;;;;9.73;2.95;;;;;;;32.70;20.94;100347.91;5057686;28;20055;-40
2023/05/19 08:35:07;;;;;;;6.75;2.55;;;;;;;32.93;20.30;100361.38;5098909;28;20040;-39
2023/05/19 08:37:35;;;;;;;4.15;2.70;;;;;;;33.59;19.79;100355.25;5091917;28;20130;-40
2023/05/19 08:40:04;;;;;;;7.20;3.47;;;;;;;34.33;19.21;100358.78;5072561;28;20721;-42
2023/05/19 08:42:31;;;;;;;6.43;2.90;;;;;;;35.11;18.42;100358.78;5074138;28;20040;-42
2023/05/19 08:44:58;;;;;;;5.32;2.53;;;;;;;35.78;18.14;100362.88;5093808;28;20047;-39
2023/05/19 08:47:26;;;;;;;10.32;2.70;;;;;;;36.07;17.56;100355.31;5076814;28;20530;-41
2023/05/19 08:49:56;;;;;;;4.78;2.20;;;;;;;36.18;16.95;100353.91;5078513;28;20510;-41
2023/05/19 08:52:48;;;;;;;3.28;2.42;;;;;;;36.86;16.46;100349.34;5064220;28;20052;-40
2023/05/19 08:55:26;;;;;;;8.02;2.92;;;;;;;37.34;15.92;100348.13;5069344;28;20105;-40
2023/05/19 08:57:52;;;;;;;7.63;3.10;;;;;;;37.61;16.12;100326.41;5076321;28;20032;-40
2023/05/19 09:00:19;;;;;;;5.72;2.50;;;;;;;37.91;15.92;100337.56;5074037;28;20040;-41
2023/05/19 09:02:47;;;;;;;4.53;2.80;;;;;;;38.18;15.76;100336.44;5087507;28;20426;-41
2023/05/19 09:05:15;;;;;;;9.48;2.63;;;;;;;38.58;15.45;100337.06;5074466;28;20538;-41
2023/05/19 09:07:42;;;;;;;5.28;2.50;;;;;;;38.95;15.05;100317.19;5078459;28;20100;-37
2023/05/19 09:10:12;;;;;;;4.25;2.60;;;;;;;39.12;14.83;100305.75;5063870;28;20044;-37
2023/05/19 09:12:40;;;;;;;4.18;2.50;;;;;;;39.56;14.90;100329.22;5094996;28;20123;-39
2023/05/19 09:15:08;;;;;;;5.30;2.63;;;;;;;39.42;14.44;100330.38;5055190;28;20035;-37
2023/05/19 09:17:34;;;;;;;3.85;2.33;;;;;;;39.46;14.37;100332.44;5080511;28;20274;-38
2023/05/19 09:20:03;;;;;;;5.95;2.40;;;;;;;39.53;14.20;100335.91;5053685;28;20056;-37
2023/05/19 09:22:30;;;;;;;2.60;2.00;;;;;;;39.48;14.26;100316.72;5055805;28;20531;-38
2023/05/19 09:24:56;;;;;;;7.78;2.30;;;;;;;39.30;14.15;100328.41;5099073;28;20040;-38
2023/05/19 09:27:22;;;;;;;7.13;3.03;;;;;;;39.04;14.13;100312.31;5069460;28;20051;-39
2023/05/19 09:29:49;;;;;;;6.43;2.95;;;;;;;38.54;14.46;100312.22;5070600;28;20403;-37
2023/05/19 09:32:25;;;;;;;5.63;2.63;;;;;;;38.11;14.66;100312.03;5049230;28;20036;-38
2023/05/19 09:34:52;;;;;;;7.97;2.40;;;;;;;37.72;15.33;100296.72;5037186;28;20040;-37
2023/05/19 09:37:22;;;;;;;6.00;2.17;;;;;;;37.71;15.11;100315.91;5091541;28;20123;-36
2023/05/19 09:39:51;;;;;;;4.30;2.20;;;;;;;37.58;14.96;100310.53;5090602;28;20588;-38
2023/05/19 09:42:24;;;;;;;4.80;1.98;;;;;;;37.70;15.34;100314.25;5091196;28;20066;-38
2023/05/19 09:44:57;;;;;;;4.03;2.35;;;;;;;37.90;15.05;100308.75;5073146;28;20116;-38
2023/05/19 09:47:23;;;;;;;3.45;2.05;;;;;;;38.13;15.01;100317.25;5072326;28;20396;-37
2023/05/19 09:49:51;;;;;;;8.32;2.30;;;;;;;38.27;14.31;100316.13;5070375;28;20032;-35
2023/05/19 09:52:17;;;;;;;3.30;1.80;;;;;;;38.03;14.60;100309.56;5091132;28;20098;-36
2023/05/19 09:54:44;;;;;;;2.45;1.70;;;;;;;38.02;14.39;100310.63;5090961;28;20120;-37
2023/05/19 09:57:10;;;;;;;3.40;2.53;;;;;;;37.80;14.35;100311.91;5068679;28;20032;-36
2023/05/19 09:59:37;;;;;;;5.60;2.38;;;;;;;37.86;14.36;100311.06;5084758;28;20043;-37
2023/05/19 10:02:03;;;;;;;;;;;;;;;37.83;14.90;100302.53;5072729;28;20041;-36
2023/05/19 10:04:29;;;;;;;5.28;1.90;;;;;;;37.81;14.40;100300.00;5075033;28;19916;-37
2023/05/19 10:06:58;;;;;;;7.72;2.40;;;;;;;37.45;14.76;100277.97;5102470;28;20097;-37
2023/05/19 10:09:26;;;;;;;11.15;1.77;;;;;;;37.40;14.63;100294.88;5100233;28;20127;-36
2023/05/19 10:11:53;;;;;;;7.68;2.45;;;;;;;36.79;15.20;100294.28;5100090;28;20044;-35
2023/05/19 10:14:24;;;;;;;4.03;1.83;;;;;;;36.28;15.49;100292.06;5083371;28;20107;-36
2023/05/19 10:16:51;;;;;;;6.13;2.10;;;;;;;36.10;15.27;100291.81;5058702;28;20032;-36
2023/05/19 10:19:21;;;;;;;4.85;1.80;;;;;;;35.94;15.50;100281.31;5077640;28;20040;-35
2023/05/19 10:21:48;;;;;;;4.63;1.80;;;;;;;35.65;15.89;100271.56;5072192;28;20039;-35
2023/05/19 10:24:14;;;;;;;3.97;1.50;;;;;;;35.50;16.16;100285.25;5069564;28;20130;-37
2023/05/19 10:26:44;;;;;;;4.05;1.83;;;;;;;35.20;16.66;100276.53;5092343;28;20150;-38
2023/05/19 10:29:11;;;;;;;3.35;1.75;;;;;;;34.40;16.41;100254.38;5099675;28;20048;-37
2023/05/19 10:31:39;;;;;;;3.50;1.70;;;;;;;33.89;16.97;100283.25;5070156;28;20067;-37
2023/05/19 10:34:48;;;;;;;4.95;1.63;;;;;;;32.82;17.68;100278.31;5042281;28;20040;-38
2023/05/19 10:37:31;;;;;;;5.50;1.58;;;;;;;32.06;18.52;100282.63;5079284;28;20587;-38
2023/05/19 10:39:57;;;;;;;5.82;1.80;;;;;;;31.56;18.87;100275.75;5053305;28;20043;-37
2023/05/19 10:42:35;;;;;;;4.60;1.67;;;;;;;31.23;19.29;100274.19;5088578;28;20055;-37
2023/05/19 10:45:19;;;;;;;8.07;1.63;;;;;;;30.89;19.33;100277.03;5066266;28;20945;-36
2023/05/19 10:47:45;;;;;;;4.22;1.67;;;;;;;30.76;19.43;100271.34;5080471;28;20040;-37
2023/05/19 10:50:11;;;;;;;4.53;1.40;;;;;;;30.64;19.75;100275.34;5089293;28;20088;-37
2023/05/19 10:52:38;;;;;;;2.97;1.70;;;;;;;30.50;20.08;100278.72;5089559;28;20480;-38
2023/05/19 10:55:08;;;;;;;4.53;1.58;;;;;;;30.30;20.29;100284.34;5088140;28;20139;-37
2023/05/19 10:57:35;;;;;;;8.52;1.95;;;;;;;29.96;20.53;100278.22;5088657;28;20457;-37
2023/05/19 11:00:10;;;;;;;3.13;1.67;;;;;;;29.53;20.61;100262.25;5086893;28;20318;-37
2023/05/19 11:02:41;;;;;;;5.10;1.67;;;;;;;29.57;20.67;100283.22;5072701;28;20079;-37
2023/05/19 11:05:13;;;;;;;2.90;1.35;;;;;;;29.36;21.04;100280.91;5087281;28;20032;-36
2023/05/19 11:08:04;;;;;;;3.72;1.40;;;;;;;29.23;21.36;100285.00;5069613;28;20032;-39
2023/05/19 11:10:30;;;;;;;3.63;1.40;;;;;;;29.01;21.03;100283.66;5071328;28;20048;-38
2023/05/19 11:12:57;;;;;;;3.63;1.77;;;;;;;29.06;21.26;100276.00;5070371;28;20081;-37
2023/05/19 11:15:26;;;;;;;4.18;2.55;;;;;;;29.01;21.32;100283.66;5086200;28;20519;-38
2023/05/19 11:17:52;;;;;;;3.05;1.67;;;;;;;28.74;21.38;100278.41;5067435;28;20044;-37
2023/05/19 11:20:26;;;;;;;7.13;1.80;;;;;;;28.52;21.61;100277.06;5053285;28;20113;-36
2023/05/19 11:23:05;;;;;;;4.82;1.60;;;;;;;28.54;21.52;100283.91;5088306;28;20096;-37
2023/05/19 11:25:43;;;;;;;2.97;1.30;;;;;;;28.80;21.12;100283.16;5088233;28;20190;-37
2023/05/19 11:28:11;;;;;;;4.80;1.55;;;;;;;29.23;20.79;100277.81;5053568;28;20036;-36
2023/05/19 11:30:37;;;;;;;4.07;1.90;;;;;;;29.58;20.55;100278.69;5052184;28;20089;-37